Map

Track Data

SID SEASON NUMBER BASIN SUBBASIN NAME ISO_TIME NATURE LAT LON WMO_WIND WMO_PRES WMO_AGENCY TRACK_TYPE DIST2LAND LANDFALL IFLAG USA_AGENCY USA_ATCF_ID USA_LAT USA_LON USA_RECORD USA_STATUS USA_WIND USA_PRES USA_SSHS USA_R34_NE USA_R34_SE USA_R34_SW USA_R34_NW USA_R50_NE USA_R50_SE USA_R50_SW USA_R50_NW USA_R64_NE USA_R64_SE USA_R64_SW USA_R64_NW USA_POCI USA_ROCI USA_RMW USA_EYE TOKYO_LAT TOKYO_LON TOKYO_GRADE TOKYO_WIND TOKYO_PRES TOKYO_R50_DIR TOKYO_R50_LONG TOKYO_R50_SHORT TOKYO_R30_DIR TOKYO_R30_LONG TOKYO_R30_SHORT TOKYO_LAND CMA_LAT CMA_LON CMA_CAT CMA_WIND CMA_PRES HKO_LAT HKO_LON HKO_CAT HKO_WIND HKO_PRES NEWDELHI_LAT NEWDELHI_LON NEWDELHI_GRADE NEWDELHI_WIND NEWDELHI_PRES NEWDELHI_CI NEWDELHI_DP NEWDELHI_POCI REUNION_LAT REUNION_LON REUNION_TYPE REUNION_WIND REUNION_PRES REUNION_TNUM REUNION_CI REUNION_RMW REUNION_R34_NE REUNION_R34_SE REUNION_R34_SW REUNION_R34_NW REUNION_R50_NE REUNION_R50_SE REUNION_R50_SW REUNION_R50_NW REUNION_R64_NE REUNION_R64_SE REUNION_R64_SW REUNION_R64_NW BOM_LAT BOM_LON BOM_TYPE BOM_WIND BOM_PRES BOM_TNUM BOM_CI BOM_RMW BOM_R34_NE BOM_R34_SE BOM_R34_SW BOM_R34_NW BOM_R50_NE BOM_R50_SE BOM_R50_SW BOM_R50_NW BOM_R64_NE BOM_R64_SE BOM_R64_SW BOM_R64_NW BOM_ROCI BOM_POCI BOM_EYE BOM_POS_METHOD BOM_PRES_METHOD NADI_LAT NADI_LON NADI_CAT NADI_WIND NADI_PRES WELLINGTON_LAT WELLINGTON_LON WELLINGTON_WIND WELLINGTON_PRES DS824_LAT DS824_LON DS824_STAGE DS824_WIND DS824_PRES TD9636_LAT TD9636_LON TD9636_STAGE TD9636_WIND TD9636_PRES TD9635_LAT TD9635_LON TD9635_WIND TD9635_PRES TD9635_ROCI NEUMANN_LAT NEUMANN_LON NEUMANN_CLASS NEUMANN_WIND NEUMANN_PRES MLC_LAT MLC_LON MLC_CLASS MLC_WIND MLC_PRES USA_GUST BOM_GUST BOM_GUST_PER REUNION_GUST REUNION_GUST_PER USA_SEAHGT USA_SEARAD_NE USA_SEARAD_SE USA_SEARAD_SW USA_SEARAD_NW STORM_SPEED STORM_DIR
1888309N16068 1888 59 NI AS NOT_NAMED 1888-11-04 00:00:00 TS 15.6000 68.3000 main 543 543 _________O____ -1 15.6000 68.3000 TC 64 0 0
1888309N16068 1888 59 NI AS NOT_NAMED 1888-11-04 03:00:00 TS 15.6000 68.3000 main 543 543 _________PO___ -1 15.6000 68.3000 TC 64 15.6000 68.3000 4 0 0
1888309N16068 1888 59 NI AS NOT_NAMED 1888-11-04 06:00:00 TS 15.6000 68.3000 main 543 543 _________OP___ -1 15.6000 68.3000 TC 64 15.6000 68.3000 4 0 0
1888309N16068 1888 59 NI AS NOT_NAMED 1888-11-04 09:00:00 TS 15.6000 68.3000 main 543 543 _________PP___ -1 15.6000 68.3000 TC 64 15.6000 68.3000 4 0 0
1888309N16068 1888 59 NI AS NOT_NAMED 1888-11-04 12:00:00 TS 15.6000 68.3000 main 543 543 _________OP___ -1 15.6000 68.3000 TC 64 15.6000 68.3000 4 0 0
1888309N16068 1888 59 NI AS NOT_NAMED 1888-11-04 15:00:00 TS 15.6000 68.3000 main 543 543 _________PO___ -1 15.6000 68.3000 TC 64 15.6000 68.3000 4 0 0
1888309N16068 1888 59 NI AS NOT_NAMED 1888-11-04 18:00:00 TS 15.6000 68.3000 main 543 543 _________OP___ -1 15.6000 68.3000 TC 64 15.6000 68.3000 4 0 0
1888309N16068 1888 59 NI AS NOT_NAMED 1888-11-04 21:00:00 TS 15.6000 68.3000 main 543 543 _________PP___ -1 15.6000 68.3000 TC 64 15.6000 68.3000 4 0 0
1888309N16068 1888 59 NI AS NOT_NAMED 1888-11-05 00:00:00 TS 15.6000 68.3000 main 543 543 _________OP___ -1 15.6000 68.3000 TC 64 15.6000 68.3000 4 0 0
1888309N16068 1888 59 NI AS NOT_NAMED 1888-11-05 03:00:00 TS 15.6000 68.3000 main 543 543 _________PO___ -1 15.6000 68.3000 TC 64 15.6000 68.3000 4 0 0
1888309N16068 1888 59 NI AS NOT_NAMED 1888-11-05 06:00:00 TS 15.6000 68.3000 main 543 543 _________OP___ -1 15.6000 68.3000 TC 64 15.6000 68.3000 4 0 0
1888309N16068 1888 59 NI AS NOT_NAMED 1888-11-05 09:00:00 TS 15.6000 68.3000 main 543 543 _________PP___ -1 15.6000 68.3000 TC 64 15.6000 68.3000 4 0 0
1888309N16068 1888 59 NI AS NOT_NAMED 1888-11-05 12:00:00 TS 15.6000 68.3000 main 543 543 _________OP___ -1 15.6000 68.3000 TC 64 15.6000 68.3000 4 0 0
1888309N16068 1888 59 NI AS NOT_NAMED 1888-11-05 15:00:00 TS 15.6000 68.3000 main 543 543 _________PO___ -1 15.6000 68.3000 TC 64 15.6000 68.3000 4 0 0
1888309N16068 1888 59 NI AS NOT_NAMED 1888-11-05 18:00:00 TS 15.6000 68.3000 main 543 543 _________OP___ -1 15.6000 68.3000 TC 64 15.6000 68.3000 4 0 0
1888309N16068 1888 59 NI AS NOT_NAMED 1888-11-05 21:00:00 TS 15.6000 68.3000 main 543 543 _________PP___ -1 15.6000 68.3000 TC 64 15.6000 68.3000 4 0 0
1888309N16068 1888 59 NI AS NOT_NAMED 1888-11-06 00:00:00 TS 15.6000 68.3000 main 543 543 _________OP___ -1 15.6000 68.3000 TC 64 15.6000 68.3000 4 0 0
1888309N16068 1888 59 NI AS NOT_NAMED 1888-11-06 03:00:00 TS 15.6000 68.3000 main 543 543 _________PO___ -1 15.6000 68.3000 TC 64 15.6000 68.3000 4 0 0
1888309N16068 1888 59 NI AS NOT_NAMED 1888-11-06 06:00:00 TS 15.6000 68.3000 main 543 543 _________OP___ -1 15.6000 68.3000 TC 64 15.6000 68.3000 4 0 0
1888309N16068 1888 59 NI AS NOT_NAMED 1888-11-06 09:00:00 TS 15.6000 68.3000 main 543 543 _________PP___ -1 15.6000 68.3000 TC 64 15.6000 68.3000 4 0 0
1888309N16068 1888 59 NI AS NOT_NAMED 1888-11-06 12:00:00 TS 15.6000 68.3000 main 543 543 _________OP___ -1 15.6000 68.3000 TC 64 15.6000 68.3000 4 0 0
1888309N16068 1888 59 NI AS NOT_NAMED 1888-11-06 15:00:00 TS 15.6000 68.3000 main 543 543 _________PO___ -1 15.6000 68.3000 TC 64 15.6000 68.3000 4 0 136
1888309N16068 1888 59 NI AS NOT_NAMED 1888-11-06 18:00:00 TS 15.5716 68.3081 main 543 543 _________OP___ -1 15.6000 68.3000 TC 64 15.5431 68.3161 4 1 0
1888309N16068 1888 59 NI AS NOT_NAMED 1888-11-06 21:00:00 TS 15.5287 68.3224 main 546 546 _________PP___ -1 15.5625 68.3150 TC 64 15.4950 68.3298 4 0 0
1888309N16068 1888 59 NI AS NOT_NAMED 1888-11-07 00:00:00 TS 15.5497 68.3143 main 546 541 _________OP___ -1 15.6000 68.3000 TC 64 15.4994 68.3285 4 2 340
1888309N16068 1888 59 NI AS NOT_NAMED 1888-11-07 03:00:00 TS 15.6913 68.2575 main 541 541 _________PO___ -1 15.7825 68.2150 TC 64 15.6000 68.3000 4 5 339
1888309N16068 1888 59 NI AS NOT_NAMED 1888-11-07 06:00:00 TS 15.9788 68.1424 main 558 554 _________OP___ -1 16.1000 68.1000 TC 64 15.8576 68.1848 4 7 341
1888309N16068 1888 59 NI AS NOT_NAMED 1888-11-07 09:00:00 TS 16.3763 68.0094 main 557 532 _________PP___ -1 16.5425 67.9702 TC 64 16.2101 68.0487 4 9 345
1888309N16068 1888 59 NI AS NOT_NAMED 1888-11-07 12:00:00 TS 16.8038 67.9190 main 532 505 _________OP___ -1 17.0000 67.9000 TC 64 16.6075 67.9381 4 8 354
1888309N16068 1888 59 NI AS NOT_NAMED 1888-11-07 15:00:00 TS 17.1612 67.9237 main 495 471 _________PO___ -1 17.3224 67.9475 TC 64 17.0000 67.9000 4 7 10
1888309N16068 1888 59 NI AS NOT_NAMED 1888-11-07 18:00:00 TS 17.4531 68.0418 main 462 431 _________OP___ -1 17.6000 68.1000 TC 64 17.3062 67.9835 4 7 27
1888309N16068 1888 59 NI AS NOT_NAMED 1888-11-07 21:00:00 TS 17.7463 68.2362 main 431 386 _________PP___ -1 17.8925 68.3275 TC 64 17.6000 68.1448 4 7 35
1888309N16068 1888 59 NI AS NOT_NAMED 1888-11-08 00:00:00 TS 18.0469 68.4794 main 386 337 _________OP___ -1 18.2000 68.6000 TC 64 17.8937 68.3587 4 8 37
1888309N16068 1888 59 NI AS NOT_NAMED 1888-11-08 03:00:00 TS 18.3712 68.7250 main 337 297 _________PO___ -1 18.5425 68.8501 TC 64 18.2000 68.6000 4 8 34
1888309N16068 1888 59 NI AS NOT_NAMED 1888-11-08 06:00:00 TS 18.7157 68.9563 main 291 252 _________OP___ -1 18.9000 69.1000 TC 64 18.5314 68.8125 4 8 33
1888309N16068 1888 59 NI AS NOT_NAMED 1888-11-08 09:00:00 TS 19.0598 69.1917 main 242 203 _________PP___ -1 19.2424 69.3353 TC 64 18.8773 69.0481 4 8 34
1888309N16068 1888 59 NI AS NOT_NAMED 1888-11-08 12:00:00 TS 19.4172 69.4548 main 197 148 _________OP___ -1 19.6000 69.6000 TC 64 19.2345 69.3096 4 9 36
1888309N16068 1888 59 NI AS NOT_NAMED 1888-11-08 15:00:00 TS 19.8000 69.7675 main 143 98 _________PO___ -1 20.0000 69.9350 TC 55 19.6000 69.6000 4 9 39
1888309N16068 1888 59 NI AS NOT_NAMED 1888-11-08 18:00:00 TS 20.1549 70.0832 main 88 45 _________OP___ -1 20.4000 70.3000 TC 47 19.9710 69.9206 4 9 41
1888309N16068 1888 59 NI AS NOT_NAMED 1888-11-08 21:00:00 TS 20.5125 70.4214 main 45 0 _________PP___ -1 20.7626 70.6548 TC 38 20.3457 70.2659 4 9 42
1888309N16068 1888 59 NI AS NOT_NAMED 1888-11-09 00:00:00 TS 20.8484 70.7521 main 0 0 _________OP___ -1 21.1000 71.0000 TC 30 20.7226 70.6282 4 8 43
1888309N16068 1888 59 NI AS NOT_NAMED 1888-11-09 03:00:00 NR 21.1000 71.0000 main 0 __________O___ -1 TC 21.1000 71.0000 1 7 42

About IBTrACS Database

This database is a web-friendly format of International Best Track Archive for Climate Stewardship (IBTrACS), a global best track data archive curated by NOAA dating back to 1842.

Updated: 2021-12-03